createdAt,value
2018-12-01T08:36:39.871Z,19.00
2018-12-01T08:37:37.975Z,19.40
2018-12-01T08:38:42.918Z,19.80
2018-12-01T08:39:43.991Z,20.60
2018-12-01T08:40:38.451Z,21.00
2018-12-01T08:41:48.430Z,20.60
2018-12-01T08:42:38.027Z,20.40
2018-12-01T08:43:39.045Z,20.10
2018-12-01T08:45:00.956Z,21.00
2018-12-01T08:45:37.519Z,24.20
2018-12-01T08:46:39.450Z,22.70
2018-12-01T08:47:37.793Z,21.80
2018-12-01T08:48:41.411Z,21.90
2018-12-01T08:49:54.982Z,21.80
2018-12-01T08:50:41.006Z,21.70
2018-12-01T08:51:38.467Z,22.80
2018-12-01T08:52:40.476Z,23.50
2018-12-01T08:54:02.453Z,21.60
2018-12-01T08:54:45.017Z,21.40
2018-12-01T08:56:00.228Z,20.40
2018-12-01T08:56:39.519Z,21.10
2018-12-01T08:58:04.811Z,20.40
2018-12-01T08:59:07.467Z,21.30
2018-12-01T09:00:03.971Z,20.10
2018-12-01T09:00:55.960Z,19.70
2018-12-01T09:08:14.681Z,19.90
2018-12-01T09:08:53.521Z,20.10
2018-12-01T09:11:45.001Z,19.60
2018-12-01T09:12:26.006Z,20.50
2018-12-01T09:13:27.034Z,19.40
2018-12-01T09:14:23.654Z,20.00
2018-12-01T09:15:38.824Z,19.40
2018-12-01T09:16:25.028Z,19.40
2018-12-01T09:17:27.778Z,19.70
2018-12-01T09:18:48.009Z,20.10
2018-12-01T09:19:25.988Z,20.30
2018-12-01T09:20:28.479Z,20.20
2018-12-01T09:21:50.229Z,20.50
2018-12-01T09:22:32.981Z,20.20
2018-12-01T09:23:25.956Z,20.70
2018-12-01T09:24:26.961Z,20.40
2018-12-01T09:26:59.670Z,20.90
2018-12-01T09:28:13.195Z,21.50
2018-12-01T09:32:06.313Z,20.80
2018-12-01T09:33:07.408Z,20.60
2018-12-01T09:34:04.817Z,21.20
2018-12-01T09:35:17.376Z,21.20
2018-12-01T09:36:03.913Z,21.00
2018-12-01T09:37:05.319Z,21.60
2018-12-01T09:38:07.320Z,21.60
2018-12-01T09:39:35.813Z,21.50
2018-12-01T09:40:07.465Z,21.10
2018-12-01T09:41:32.322Z,21.50
2018-12-01T09:42:24.883Z,21.00
2018-12-01T09:43:05.876Z,21.40
2018-12-01T09:44:03.591Z,21.30
2018-12-01T09:45:04.465Z,21.10
2018-12-01T09:46:06.324Z,21.70
2018-12-01T09:47:04.821Z,21.30
2018-12-01T09:48:11.859Z,21.20
2018-12-01T09:49:05.198Z,21.40
2018-12-01T09:50:11.819Z,20.30
2018-12-01T09:51:07.394Z,20.70
2018-12-01T09:52:08.380Z,21.10
2018-12-01T09:53:08.927Z,20.50
2018-12-01T09:54:06.872Z,20.70
2018-12-01T09:55:05.331Z,20.90
2018-12-01T09:56:21.363Z,20.60
2018-12-01T09:57:12.390Z,20.80
2018-12-01T09:58:08.872Z,21.30
2018-12-01T09:59:07.862Z,21.00
2018-12-01T10:00:06.815Z,20.30
2018-12-01T10:01:13.892Z,20.90
2018-12-01T10:02:07.198Z,20.10
2018-12-01T10:03:18.480Z,19.20
2018-12-01T10:04:14.382Z,19.20
2018-12-01T10:05:09.825Z,19.50
2018-12-01T10:06:09.878Z,19.80
2018-12-01T10:07:07.315Z,19.50
2018-12-01T10:08:13.797Z,19.70
2018-12-01T10:09:08.714Z,19.70
2018-12-01T10:10:32.955Z,19.10
2018-12-01T10:11:09.867Z,19.20
2018-12-01T10:12:09.871Z,19.80
2018-12-01T10:13:10.550Z,19.60
2018-12-01T10:14:17.847Z,18.90
2018-12-01T10:15:12.921Z,19.60
2018-12-01T10:16:10.421Z,18.40
2018-12-01T10:17:31.960Z,18.60
2018-12-01T10:18:10.694Z,18.70
2018-12-01T10:19:12.859Z,19.20
2018-12-01T10:20:13.825Z,19.50
2018-12-01T10:21:09.628Z,18.60
2018-12-01T10:22:09.696Z,18.60
2018-12-01T10:23:32.419Z,18.60
2018-12-01T10:24:30.995Z,17.90
2018-12-01T10:25:13.909Z,17.50
2018-12-01T10:26:12.854Z,17.70
2018-12-01T10:27:12.365Z,17.90
2018-12-01T10:28:12.561Z,16.50
2018-12-01T10:29:10.769Z,15.80
2018-12-01T10:30:26.880Z,16.30
2018-12-01T10:31:14.905Z,15.70
2018-12-01T10:32:14.860Z,15.90
2018-12-01T10:33:13.759Z,15.60
2018-12-01T10:34:12.711Z,14.50
2018-12-01T10:35:13.364Z,15.80
2018-12-01T10:36:15.863Z,14.70
2018-12-01T10:37:12.815Z,15.40
2018-12-01T10:38:13.260Z,15.00
2018-12-01T10:39:14.401Z,15.10
2018-12-01T10:40:13.648Z,14.80
2018-12-01T10:41:12.871Z,14.70
2018-12-01T10:42:14.866Z,15.20
2018-12-01T10:43:14.902Z,14.90
2018-12-01T10:44:14.864Z,14.60
2018-12-01T10:45:13.452Z,14.70
2018-12-01T10:46:13.668Z,14.80
2018-12-01T10:47:14.893Z,15.40
2018-12-01T10:48:15.893Z,15.50
2018-12-01T10:49:14.130Z,14.80
2018-12-01T10:50:14.245Z,14.50
2018-12-01T10:51:14.437Z,14.70
2018-12-01T10:52:15.713Z,14.70
2018-12-01T10:53:14.838Z,14.30
2018-12-01T10:54:15.897Z,14.70
2018-12-01T10:55:16.865Z,14.20
2018-12-01T10:56:16.905Z,14.10
2018-12-01T10:57:19.393Z,13.00
2018-12-01T10:58:15.691Z,13.60
2018-12-01T10:59:17.903Z,14.30
2018-12-01T11:00:17.862Z,13.50
2018-12-01T11:01:22.888Z,13.40
2018-12-01T11:02:16.377Z,13.70
2018-12-01T11:03:16.465Z,13.30
2018-12-01T11:04:18.364Z,13.70
2018-12-01T11:05:18.365Z,13.90
2018-12-01T11:06:16.934Z,13.90
2018-12-01T11:07:20.860Z,13.80
2018-12-01T11:08:18.901Z,13.20
2018-12-01T11:09:18.528Z,13.20
2018-12-01T11:10:20.317Z,13.20
2018-12-01T11:11:17.924Z,12.30
2018-12-01T11:12:20.838Z,13.30
2018-12-01T11:13:18.312Z,13.20
2018-12-01T11:14:20.363Z,13.00
2018-12-01T11:15:22.395Z,13.30
2018-12-01T11:16:19.995Z,14.30
2018-12-01T11:17:52.077Z,13.40
2018-12-01T11:18:41.886Z,13.30
2018-12-01T11:19:21.366Z,12.00
2018-12-01T11:20:21.391Z,11.30
2018-12-01T11:21:23.372Z,11.40
2018-12-01T11:22:19.958Z,10.50
2018-12-01T11:23:22.844Z,11.10
2018-12-01T11:24:21.917Z,11.40
2018-12-01T11:25:22.398Z,11.30
2018-12-01T11:26:22.393Z,11.20
2018-12-01T11:27:24.361Z,11.10
2018-12-01T11:28:21.469Z,11.10
2018-12-01T11:29:24.864Z,10.60
2018-12-01T11:30:21.329Z,11.20
2018-12-01T11:31:23.374Z,11.20
2018-12-01T11:32:22.832Z,11.40
2018-12-01T11:33:29.878Z,11.70
2018-12-01T11:34:23.091Z,12.10
2018-12-01T11:35:23.327Z,12.40
2018-12-01T11:36:24.387Z,13.20
2018-12-01T11:37:28.645Z,12.80
2018-12-01T11:38:22.831Z,12.60
2018-12-01T11:39:22.909Z,12.40
2018-12-01T11:40:29.132Z,12.80
2018-12-01T11:41:23.349Z,12.50
2018-12-01T11:42:25.373Z,12.70
2018-12-01T11:43:23.726Z,11.70
2018-12-01T11:44:23.937Z,11.70
2018-12-01T11:45:25.863Z,12.00
2018-12-01T11:46:24.314Z,12.30
2018-12-01T11:47:26.429Z,12.30
2018-12-01T11:48:24.751Z,12.80
2018-12-01T11:49:25.006Z,11.50
2018-12-01T11:50:26.873Z,11.80
2018-12-01T11:51:26.883Z,11.30
2018-12-01T11:52:29.365Z,11.50
2018-12-01T11:53:27.407Z,11.90
2018-12-01T11:54:25.893Z,11.70
2018-12-01T11:55:27.896Z,11.90
2018-12-01T11:56:27.863Z,12.00
2018-12-01T11:57:26.365Z,12.20
2018-12-01T11:58:28.374Z,11.60
2018-12-01T11:59:28.365Z,11.10
2018-12-01T12:00:32.392Z,11.30
2018-12-01T12:01:27.972Z,11.80
2018-12-01T12:02:27.187Z,11.30
2018-12-01T12:03:27.409Z,11.70
2018-12-01T12:04:27.637Z,11.10
2018-12-01T12:05:29.386Z,10.70
2018-12-01T12:06:29.001Z,11.60
2018-12-01T12:07:32.549Z,11.00
2018-12-01T12:08:49.256Z,10.50
2018-12-01T12:09:30.376Z,10.50
2018-12-01T12:10:30.380Z,10.70
2018-12-01T12:11:32.363Z,10.40
2018-12-01T12:12:28.945Z,10.40
2018-12-01T12:13:30.164Z,10.90
2018-12-01T12:14:29.375Z,10.60
2018-12-01T12:15:35.573Z,10.20
2018-12-01T12:16:30.792Z,10.20
2018-12-01T12:17:32.881Z,9.70
2018-12-01T12:18:33.867Z,9.90
2018-12-01T12:19:30.447Z,9.80
2018-12-01T12:20:32.368Z,9.10
2018-12-01T12:21:31.866Z,9.30
2018-12-01T12:22:32.863Z,8.80
2018-12-01T12:23:34.911Z,8.60
2018-12-01T12:24:34.867Z,8.40
2018-12-01T12:25:34.897Z,8.60
2018-12-01T12:26:34.426Z,9.20
2018-12-01T12:27:31.614Z,8.90
2018-12-01T12:28:33.366Z,9.10
2018-12-01T12:29:32.991Z,9.00
2018-12-01T12:30:34.903Z,8.90
2018-12-01T12:31:32.229Z,9.30
2018-12-01T12:32:36.369Z,8.80
2018-12-01T12:33:34.367Z,8.00
2018-12-01T12:34:32.691Z,8.70
2018-12-01T12:35:32.895Z,8.40
2018-12-01T12:36:34.874Z,8.50
2018-12-01T12:37:33.329Z,8.40
2018-12-01T12:38:35.412Z,8.20
2018-12-01T12:39:35.374Z,7.60
2018-12-01T12:40:33.829Z,7.30
2018-12-01T12:41:46.116Z,7.50
2018-12-01T12:42:40.895Z,7.10
2018-12-01T12:43:34.388Z,7.30
2018-12-01T12:44:34.479Z,7.40
2018-12-01T12:45:36.367Z,7.10
2018-12-01T12:46:35.853Z,7.00
2018-12-01T12:47:36.865Z,7.10
2018-12-01T12:48:38.865Z,7.60
2018-12-01T12:49:35.229Z,7.60
2018-12-01T12:50:35.323Z,6.90
2018-12-01T12:51:35.529Z,7.50
2018-12-01T12:52:37.364Z,6.90
2018-12-01T12:53:35.988Z,6.10
2018-12-01T12:54:36.214Z,6.90
2018-12-01T12:55:36.313Z,7.10
2018-12-01T12:56:38.384Z,6.60
2018-12-01T12:57:36.758Z,6.70
2018-12-01T12:58:39.938Z,7.00
2018-12-01T12:59:38.877Z,6.60
2018-12-01T13:00:38.360Z,6.50
2018-12-01T13:01:37.448Z,6.60
2018-12-01T13:02:37.660Z,6.40
2018-12-01T13:03:58.861Z,6.40
2018-12-01T13:04:38.060Z,6.60
2018-12-01T13:05:38.296Z,6.50
2018-12-01T13:06:39.392Z,6.70
2018-12-01T13:07:38.623Z,6.40
2018-12-01T13:08:40.367Z,6.30
2018-12-01T13:09:39.947Z,6.20
2018-12-01T13:10:42.873Z,6.60
2018-12-01T13:11:39.384Z,6.90
2018-12-01T13:12:39.580Z,6.30
2018-12-01T13:13:43.366Z,6.50
2018-12-01T13:14:43.379Z,6.40
2018-12-01T13:15:43.884Z,6.60
2018-12-01T13:16:40.101Z,6.30
2018-12-01T13:17:40.306Z,6.10
2018-12-01T13:18:42.365Z,6.20
2018-12-01T13:19:42.368Z,6.50
2018-12-01T13:20:40.826Z,5.90
2018-12-01T13:21:42.872Z,6.10
2018-12-01T13:22:41.202Z,6.00
2018-12-01T13:23:43.365Z,5.70
2018-12-01T13:24:43.371Z,5.80
2018-12-01T13:25:41.703Z,5.90
2018-12-01T13:26:41.904Z,6.20
2018-12-01T13:27:42.120Z,6.00
2018-12-01T13:28:42.322Z,5.80
2018-12-01T13:29:42.535Z,6.00
2018-12-01T13:30:44.405Z,6.00
2018-12-01T13:31:42.889Z,6.20
2018-12-01T13:32:43.106Z,5.70
2018-12-01T13:33:44.880Z,6.10
2018-12-01T13:34:43.455Z,6.10
2018-12-01T13:35:45.387Z,5.60
2018-12-01T13:36:43.868Z,5.60
2018-12-01T13:37:44.059Z,5.10
2018-12-01T13:38:45.877Z,5.60
2018-12-01T13:39:44.444Z,5.50
2018-12-01T13:40:46.389Z,6.10
2018-12-01T13:41:44.829Z,5.70
2018-12-01T13:42:52.866Z,5.60
2018-12-01T13:43:46.869Z,6.00
2018-12-01T13:44:45.333Z,5.90
2018-12-01T13:45:45.536Z,5.60
2018-12-01T13:46:45.744Z,5.20
2018-12-01T13:47:47.871Z,5.70
2018-12-01T13:48:46.070Z,5.50
2018-12-01T13:49:46.315Z,5.70
2018-12-01T13:50:48.375Z,5.70
2018-12-01T13:51:50.383Z,5.50
2018-12-01T13:52:47.849Z,5.60
2018-12-01T13:53:47.068Z,5.60
2018-12-01T13:54:48.294Z,6.10
2018-12-01T13:55:47.487Z,6.00
2018-12-01T13:56:49.371Z,6.50
2018-12-01T13:57:49.371Z,6.20
2018-12-01T13:58:49.914Z,6.70
2018-12-01T13:59:49.114Z,6.90
2018-12-01T14:00:54.322Z,6.70
2018-12-01T14:01:50.376Z,6.90
2018-12-01T14:02:51.390Z,6.50
2018-12-01T14:03:48.850Z,6.50
2018-12-01T14:04:49.108Z,6.80
2018-12-01T14:05:49.264Z,6.60
2018-12-01T14:06:51.411Z,6.50
2018-12-01T14:07:52.376Z,6.30
2018-12-01T14:08:53.367Z,6.90
2018-12-01T14:09:51.878Z,7.00
2018-12-01T14:10:51.867Z,7.10
2018-12-01T14:11:51.899Z,7.20
2018-12-01T14:12:51.873Z,7.20
2018-12-01T14:13:52.373Z,6.70
2018-12-01T14:14:50.706Z,6.10
2018-12-01T14:15:52.881Z,6.20
2018-12-01T14:16:51.086Z,6.10
2018-12-01T14:17:51.325Z,6.10
2018-12-01T14:18:51.417Z,7.30
2018-12-01T14:19:51.671Z,7.30
2018-12-01T14:20:51.820Z,7.60
2018-12-01T14:21:53.880Z,6.90
2018-12-01T14:22:53.879Z,6.70
2018-12-01T14:23:53.869Z,6.80
2018-12-01T14:24:52.451Z,7.30
2018-12-01T14:25:52.672Z,7.90
2018-12-01T14:26:52.904Z,11.00
2018-12-01T14:27:52.991Z,9.50
2018-12-01T14:28:56.870Z,8.80
2018-12-01T14:29:54.869Z,8.70
2018-12-01T14:30:53.459Z,8.50
2018-12-01T14:31:57.373Z,8.20
2018-12-01T14:32:55.388Z,8.30
2018-12-01T14:33:55.867Z,8.10
2018-12-01T14:34:55.099Z,6.80
2018-12-01T14:35:55.889Z,7.10
2018-12-01T14:36:56.445Z,7.20
2018-12-01T14:37:55.704Z,7.20
2018-12-01T14:38:58.873Z,7.30
2018-12-01T14:39:55.100Z,7.10
2018-12-01T14:40:56.908Z,7.00
2018-12-01T14:41:55.367Z,7.30
2018-12-01T14:42:57.372Z,7.40
2018-12-01T14:43:55.698Z,7.40
2018-12-01T14:44:57.885Z,7.10
2018-12-01T14:45:57.872Z,7.30
2018-12-01T14:46:56.241Z,6.50
2018-12-01T14:47:58.840Z,7.30
2018-12-01T14:48:58.384Z,7.20
2018-12-01T14:49:58.456Z,7.50
2018-12-01T14:51:04.390Z,7.50
2018-12-01T14:52:02.904Z,7.50
2018-12-01T14:52:57.276Z,7.00
2018-12-01T14:53:59.418Z,7.40
2018-12-01T14:54:59.387Z,6.70
2018-12-01T14:55:57.768Z,6.40
2018-12-01T14:56:59.430Z,7.10
2018-12-01T14:58:05.884Z,6.60
2018-12-01T14:59:01.884Z,7.50
2018-12-01T14:59:58.511Z,7.30
2018-12-01T15:00:58.634Z,7.90
2018-12-01T15:01:58.727Z,7.80
2018-12-01T15:03:00.895Z,7.60
2018-12-01T15:04:00.870Z,7.80
2018-12-01T15:04:59.357Z,8.20
2018-12-01T15:06:15.371Z,8.80
2018-12-01T15:06:59.698Z,8.90
2018-12-01T15:08:01.897Z,10.20
2018-12-01T15:09:02.929Z,10.20
2018-12-01T15:10:00.245Z,9.40
2018-12-01T15:11:03.330Z,9.80
2018-12-01T15:12:08.396Z,10.10
2018-12-01T15:13:00.900Z,10.00
2018-12-01T15:14:02.898Z,9.70
2018-12-01T15:15:17.775Z,9.80
2018-12-01T15:16:03.372Z,9.60
2018-12-01T15:17:03.390Z,9.90
2018-12-01T15:18:01.703Z,10.10
2018-12-01T15:19:04.880Z,10.10
2018-12-01T15:20:03.098Z,9.50
2018-12-01T15:21:03.871Z,9.70
2018-12-01T15:22:02.459Z,8.80
2018-12-01T15:23:02.684Z,9.20
2018-12-01T15:24:04.370Z,9.50
2018-12-01T15:25:04.872Z,9.50
2018-12-01T15:26:04.894Z,9.40
2018-12-01T15:27:04.219Z,8.80
2018-12-01T15:28:05.395Z,8.70
2018-12-01T15:29:07.384Z,8.50
2018-12-01T15:30:03.826Z,8.70
2018-12-01T15:31:07.879Z,8.80
2018-12-01T15:32:07.871Z,7.80
2018-12-01T15:33:04.321Z,8.40
2018-12-01T15:34:04.528Z,8.20
2018-12-01T15:35:05.727Z,8.50
2018-12-01T15:36:04.964Z,8.80
2018-12-01T15:37:05.248Z,9.30
2018-12-01T15:38:06.882Z,9.20
2018-12-01T15:39:06.888Z,15.40
2018-12-01T15:40:05.473Z,14.30
2018-12-01T15:41:05.677Z,13.20
2018-12-01T15:42:05.882Z,12.30
2018-12-01T15:43:07.871Z,12.00
2018-12-01T15:44:06.204Z,10.10
2018-12-01T15:45:08.409Z,10.00
2018-12-01T15:46:08.378Z,9.40
2018-12-01T15:47:08.418Z,9.70
2018-12-01T15:48:13.885Z,9.80
2018-12-01T15:49:08.923Z,9.40
2018-12-01T15:50:07.318Z,9.60
2018-12-01T15:51:07.538Z,9.60
2018-12-01T15:52:07.624Z,9.70
2018-12-01T15:53:07.839Z,8.70
2018-12-01T15:55:45.659Z,9.10
2018-12-01T15:56:44.177Z,9.30
2018-12-01T15:57:42.178Z,9.00
2018-12-01T15:58:40.496Z,9.40
2018-12-01T15:59:42.678Z,9.30
2018-12-01T16:00:42.677Z,9.10
2018-12-01T16:01:42.681Z,9.30
2018-12-01T16:04:23.755Z,8.60
2018-12-01T16:05:40.292Z,10.20
2018-12-01T16:06:29.261Z,10.20
2018-12-01T16:07:22.611Z,9.70
2018-12-01T16:08:18.642Z,9.80
2018-12-01T16:09:17.768Z,9.20
2018-12-01T16:10:16.493Z,10.50
2018-12-01T16:11:14.307Z,10.60
2018-12-01T16:12:20.294Z,9.90
2018-12-01T16:13:16.266Z,10.00
2018-12-01T16:14:16.775Z,10.80
2018-12-01T16:15:16.775Z,10.60
2018-12-01T16:16:16.765Z,11.00
2018-12-01T16:17:16.799Z,10.80
2018-12-01T16:18:18.300Z,10.70
2018-12-01T16:19:15.651Z,10.00
2018-12-01T16:20:17.792Z,10.30
2018-12-01T16:21:17.781Z,9.80
2018-12-01T16:22:17.782Z,10.10
2018-12-01T16:23:19.785Z,11.40
2018-12-01T16:24:18.271Z,10.40
2018-12-01T16:25:16.605Z,10.90
2018-12-01T16:26:18.786Z,10.70
2018-12-01T16:27:17.020Z,9.70
2018-12-01T16:28:17.187Z,8.70
2018-12-01T16:29:17.266Z,9.30
2018-12-01T16:30:17.501Z,8.90
2018-12-01T16:31:17.615Z,9.30
2018-12-01T16:32:19.766Z,9.40
2018-12-01T16:33:21.777Z,8.90
2018-12-01T16:34:18.135Z,9.10
2018-12-01T16:35:18.369Z,9.40
2018-12-01T16:36:18.457Z,9.40
2018-12-01T16:37:20.262Z,9.20
2018-12-01T16:38:18.736Z,8.30
2018-12-01T16:39:21.808Z,8.50
2018-12-01T16:40:20.775Z,8.50
2018-12-01T16:41:20.254Z,8.90
2018-12-01T16:42:19.512Z,8.50
2018-12-01T16:43:19.607Z,8.20
2018-12-01T16:44:19.819Z,8.70
2018-12-01T16:45:20.030Z,8.70
2018-12-01T16:46:21.234Z,8.70
2018-12-01T16:47:20.457Z,8.50
2018-12-01T16:48:20.677Z,8.30
2018-12-01T16:49:22.771Z,8.60
2018-12-01T16:50:21.102Z,8.20
2018-12-01T16:51:23.285Z,8.20
2018-12-01T16:52:37.266Z,8.40
2018-12-01T16:53:23.265Z,8.30
2018-12-01T16:54:24.806Z,8.20
2018-12-01T16:55:25.784Z,8.70
2018-12-01T16:56:27.841Z,7.80
2018-12-01T16:57:24.266Z,8.00
2018-12-01T16:58:24.269Z,8.30
2018-12-01T16:59:30.279Z,8.40
2018-12-01T17:00:22.844Z,8.10
2018-12-01T17:01:29.782Z,7.60
2018-12-01T17:02:24.774Z,7.70
2018-12-01T17:03:25.266Z,7.90
2018-12-01T17:04:30.280Z,8.10
2018-12-01T17:05:27.265Z,7.90
2018-12-01T17:06:26.382Z,8.20
2018-12-01T17:07:23.981Z,7.90
2018-12-01T17:08:25.819Z,9.00
2018-12-01T17:09:24.372Z,8.80
2018-12-01T17:10:24.576Z,9.00
2018-12-01T17:11:26.273Z,9.10
2018-12-01T17:12:25.728Z,9.90
2018-12-01T17:13:26.767Z,10.30
2018-12-01T17:14:27.322Z,11.00
2018-12-01T17:15:36.442Z,12.00
2018-12-01T17:16:31.636Z,13.00
2018-12-01T17:17:26.857Z,12.60
2018-12-01T17:18:27.775Z,10.80
2018-12-01T17:19:27.138Z,9.40
2018-12-01T17:20:28.272Z,9.00
2018-12-01T17:21:34.273Z,8.50
2018-12-01T17:22:26.603Z,8.40
2018-12-01T17:23:28.773Z,9.20
2018-12-01T17:24:26.975Z,10.20
2018-12-01T17:25:27.185Z,8.20
2018-12-01T17:26:30.230Z,9.20
2018-12-01T17:27:27.604Z,8.90
2018-12-01T17:28:29.273Z,8.80
2018-12-01T17:29:28.854Z,10.90
2018-12-01T17:30:29.767Z,9.60
2018-12-01T17:31:31.775Z,9.30
2018-12-01T17:32:36.300Z,9.10
2018-12-01T17:33:30.305Z,9.40
2018-12-01T17:34:30.276Z,8.90
2018-12-01T17:35:31.188Z,8.50
2018-12-01T17:36:30.151Z,10.90
2018-12-01T17:37:33.300Z,10.70
2018-12-01T17:38:52.315Z,8.90
2018-12-01T17:39:31.269Z,8.80
2018-12-01T17:40:31.321Z,8.70
2018-12-01T17:41:29.920Z,8.90
2018-12-01T17:42:51.188Z,8.60
2018-12-01T17:43:34.269Z,8.50
2018-12-01T17:44:34.287Z,8.90
2018-12-01T17:45:32.271Z,9.40
2018-12-01T17:46:30.850Z,9.90
2018-12-01T17:47:32.776Z,9.20
2018-12-01T17:48:31.271Z,9.10
2018-12-01T17:49:33.272Z,9.30
2018-12-01T17:50:35.276Z,9.30
2018-12-01T17:51:31.740Z,8.90
2018-12-01T17:52:31.956Z,8.40
2018-12-01T17:53:32.159Z,8.50
2018-12-01T17:54:32.383Z,8.70
2018-12-01T17:55:39.317Z,8.60
2018-12-01T17:56:34.276Z,8.10
2018-12-01T17:57:34.274Z,8.10
2018-12-01T17:58:34.791Z,8.20
2018-12-01T17:59:36.767Z,8.00
2018-12-01T18:00:34.794Z,8.00
2018-12-01T18:01:33.375Z,7.70
2018-12-01T18:02:33.601Z,7.70
2018-12-01T18:03:34.817Z,8.50
2018-12-01T18:04:41.773Z,8.10
2018-12-01T18:05:35.783Z,7.50
2018-12-01T18:06:37.776Z,7.90
2018-12-01T18:07:39.256Z,7.90
2018-12-01T18:08:36.308Z,8.00
2018-12-01T18:09:35.256Z,8.10
2018-12-01T18:10:36.839Z,7.70
2018-12-01T18:11:59.805Z,7.60
2018-12-01T18:12:38.779Z,7.90
2018-12-01T18:13:35.479Z,8.00
2018-12-01T18:14:35.718Z,7.70
2018-12-01T18:15:37.817Z,7.50
2018-12-01T18:16:37.777Z,7.40
2018-12-01T18:17:37.774Z,7.80
2018-12-01T18:18:40.268Z,7.90
2018-12-01T18:19:36.534Z,8.00
2018-12-01T18:20:38.287Z,8.00
2018-12-01T18:21:38.803Z,8.00
2018-12-01T18:22:38.831Z,7.70
2018-12-01T18:23:48.810Z,7.60
2018-12-01T18:24:41.273Z,7.20
2018-12-01T18:25:37.599Z,8.10
2018-12-01T18:26:37.817Z,8.00
2018-12-01T18:27:38.027Z,8.40
2018-12-01T18:28:39.075Z,8.10
2018-12-01T18:29:38.464Z,8.00
2018-12-01T18:30:38.624Z,7.90
2018-12-01T18:31:38.905Z,8.10
2018-12-01T18:32:40.778Z,8.80
2018-12-01T18:33:42.774Z,8.20
2018-12-01T18:34:40.774Z,7.30
2018-12-01T18:35:41.270Z,6.60
2018-12-01T18:36:43.670Z,6.50
2018-12-01T18:37:39.717Z,6.40
2018-12-01T18:38:42.818Z,6.70
2018-12-01T18:39:40.040Z,6.00
2018-12-01T18:40:41.774Z,6.60
2018-12-01T18:41:40.374Z,6.00
2018-12-01T18:42:41.507Z,5.70
2018-12-01T18:43:42.473Z,6.10
2018-12-01T18:44:40.826Z,5.90
2018-12-01T18:45:41.014Z,5.30
2018-12-01T18:46:42.822Z,5.30
2018-12-01T18:47:43.317Z,5.00
2018-12-01T18:48:41.483Z,5.80
2018-12-01T18:49:43.270Z,4.90
2018-12-01T18:50:43.789Z,4.60
2018-12-01T18:51:41.997Z,5.00
2018-12-01T18:52:42.212Z,5.10
2018-12-01T18:53:44.318Z,5.20
2018-12-01T18:54:44.286Z,5.20
2018-12-01T18:55:46.318Z,5.20
2018-12-01T18:56:46.771Z,5.00
2018-12-01T18:57:43.119Z,5.30
2018-12-01T18:58:44.771Z,4.90
2018-12-01T18:59:45.289Z,5.10
2018-12-01T19:00:43.530Z,5.40
2018-12-01T19:01:59.276Z,4.70
2018-12-01T19:02:43.856Z,4.60
2018-12-01T19:03:43.971Z,4.80
2018-12-01T19:04:44.170Z,4.50
2018-12-01T19:05:44.380Z,4.80
2018-12-01T19:06:46.301Z,4.50
2018-12-01T19:07:45.774Z,4.60
2018-12-01T19:08:44.987Z,4.50
2018-12-01T19:09:48.785Z,6.70
2018-12-01T19:10:47.308Z,6.30
2018-12-01T19:11:49.270Z,8.50
2018-12-01T19:12:47.274Z,9.20
2018-12-01T19:13:52.786Z,8.40
2018-12-01T19:14:47.772Z,7.40
2018-12-01T19:15:53.772Z,4.90
2018-12-01T19:16:47.787Z,4.70
2018-12-01T19:17:48.272Z,5.60
2018-12-01T19:18:47.490Z,5.70
2018-12-01T19:19:48.278Z,5.00
2018-12-01T19:20:46.719Z,4.50
2018-12-01T19:21:48.783Z,4.70
2018-12-01T19:22:48.117Z,4.80
2018-12-01T19:23:47.323Z,4.70
2018-12-01T19:24:48.537Z,4.70
2018-12-01T19:25:51.271Z,5.60
2018-12-01T19:26:47.983Z,4.60
2018-12-01T19:27:49.771Z,4.50
2018-12-01T19:28:50.311Z,4.30
2018-12-01T19:29:50.277Z,4.90
2018-12-01T19:30:48.659Z,4.60
2018-12-01T19:31:48.754Z,4.40
2018-12-01T19:32:48.966Z,4.40
2018-12-01T19:33:49.183Z,4.20
2018-12-01T19:34:53.275Z,4.30
2018-12-01T19:35:49.598Z,4.40
2018-12-01T19:36:51.782Z,4.60
2018-12-01T19:37:50.995Z,4.60
2018-12-01T19:38:50.187Z,4.90
2018-12-01T19:39:50.432Z,4.60
2018-12-01T19:40:54.272Z,5.00
2018-12-01T19:41:54.771Z,5.20
2018-12-01T19:42:52.775Z,4.80
2018-12-01T19:43:52.821Z,5.30
2018-12-01T19:44:52.777Z,4.80
2018-12-01T19:45:51.360Z,5.20
2018-12-01T19:46:51.578Z,5.60
2018-12-01T19:47:53.777Z,5.80
2018-12-01T19:48:52.094Z,5.50
2018-12-01T19:49:57.825Z,5.10
2018-12-01T19:50:52.302Z,6.00
2018-12-01T19:51:53.509Z,5.50
2018-12-01T19:52:55.305Z,5.50
2018-12-01T19:53:54.774Z,5.20
2018-12-01T19:54:53.113Z,5.10
2018-12-01T19:55:53.329Z,4.50
2018-12-01T19:56:53.547Z,5.00
2018-12-01T19:57:56.317Z,4.50
2018-12-01T19:58:55.789Z,4.10
2018-12-01T19:59:55.798Z,4.40
2018-12-01T20:00:55.784Z,5.00
2018-12-01T20:01:55.488Z,4.10
2018-12-01T20:02:54.751Z,4.50
2018-12-01T20:03:56.782Z,4.10
2018-12-01T20:04:55.038Z,3.90
2018-12-01T20:05:56.780Z,4.90
2018-12-01T20:06:59.277Z,4.50
2018-12-01T20:08:03.315Z,4.30
2018-12-01T20:08:55.596Z,4.40
2018-12-01T20:09:57.823Z,4.40
2018-12-01T20:10:59.822Z,4.50
2018-12-01T20:11:57.785Z,4.30
2018-12-01T20:13:00.271Z,4.70
2018-12-01T20:13:57.922Z,4.90
2018-12-01T20:14:59.275Z,5.10
2018-12-01T20:16:00.772Z,5.30
2018-12-01T20:16:56.981Z,5.10
2018-12-01T20:17:58.782Z,5.00
2018-12-01T20:18:57.354Z,4.70
2018-12-01T20:19:57.561Z,5.30
2018-12-01T20:20:59.278Z,4.70
2018-12-01T20:22:01.774Z,4.90
2018-12-01T20:22:59.783Z,5.30
2018-12-01T20:23:58.229Z,5.00
2018-12-01T20:25:00.276Z,4.90
2018-12-01T20:26:02.317Z,4.80
2018-12-01T20:27:00.284Z,4.60
2018-12-01T20:28:00.777Z,5.30
2018-12-01T20:28:59.138Z,5.10
2018-12-01T20:29:59.231Z,5.10
2018-12-01T20:31:03.287Z,5.50
2018-12-01T20:32:22.285Z,5.20
2018-12-01T20:32:59.845Z,4.70
2018-12-01T20:34:00.054Z,4.80
2018-12-01T20:35:01.821Z,4.90
2018-12-01T20:36:02.515Z,4.70
2018-12-01T20:37:02.310Z,4.70
2018-12-01T20:38:00.646Z,4.80
2018-12-01T20:39:00.858Z,5.10
2018-12-01T20:40:02.082Z,5.20
2018-12-01T20:41:01.189Z,5.10
2018-12-01T20:42:01.302Z,5.10
2018-12-01T20:43:03.302Z,5.40
2018-12-01T20:44:03.282Z,5.20
2018-12-01T20:45:05.772Z,4.80
2018-12-01T20:46:03.779Z,5.00
2018-12-01T20:47:03.782Z,5.30
2018-12-01T20:48:03.399Z,5.50
2018-12-01T20:49:02.362Z,4.70
2018-12-01T20:50:02.564Z,4.70
2018-12-01T20:51:06.965Z,4.60
2018-12-01T20:52:04.775Z,4.80
2018-12-01T20:53:03.097Z,4.80
2018-12-01T20:54:05.273Z,5.00
2018-12-01T20:55:05.276Z,5.00
2018-12-01T20:56:07.483Z,5.10
2018-12-01T20:57:03.811Z,5.10
2018-12-01T20:58:05.808Z,5.40
2018-12-01T20:59:04.160Z,5.60
2018-12-01T21:00:06.291Z,5.30
2018-12-01T21:01:04.505Z,5.50
2018-12-01T21:02:06.275Z,5.70
2018-12-01T21:03:05.917Z,5.50
2018-12-01T21:04:05.013Z,5.10
2018-12-01T21:05:05.228Z,5.20
2018-12-01T21:06:07.278Z,5.10
2018-12-01T21:07:05.606Z,5.50
2018-12-01T21:08:07.786Z,5.40
2018-12-01T21:09:13.779Z,5.00
2018-12-01T21:10:06.100Z,5.40
2018-12-01T21:11:06.311Z,5.30
2018-12-01T21:12:06.511Z,5.00
2018-12-01T21:13:06.728Z,5.20
2018-12-01T21:14:08.779Z,5.20
2018-12-01T21:15:08.776Z,4.90
2018-12-01T21:16:07.234Z,5.20
2018-12-01T21:17:08.455Z,5.00
2018-12-01T21:18:09.276Z,4.70
2018-12-01T21:19:07.727Z,4.80
2018-12-01T21:20:09.786Z,4.50
2018-12-01T21:21:08.141Z,4.80
2018-12-01T21:22:08.238Z,5.00
2018-12-01T21:23:10.281Z,4.70
2018-12-01T21:24:08.614Z,4.80
2018-12-01T21:25:09.363Z,4.60
2018-12-01T21:26:08.959Z,4.60
2018-12-01T21:27:10.820Z,4.40
2018-12-01T21:28:15.458Z,4.50
2018-12-01T21:29:09.430Z,4.20
2018-12-01T21:30:09.578Z,4.40
2018-12-01T21:31:09.673Z,4.30
2018-12-01T21:32:10.861Z,4.30
2018-12-01T21:33:11.780Z,3.90
2018-12-01T21:34:16.791Z,4.00
2018-12-01T21:35:10.379Z,4.30
2018-12-01T21:36:11.857Z,3.90
2018-12-01T21:37:12.776Z,3.50
2018-12-01T21:38:10.983Z,4.10
2018-12-01T21:39:12.777Z,3.80
2018-12-01T21:40:15.323Z,4.00
2018-12-01T21:41:15.283Z,3.90
2018-12-01T21:42:15.310Z,3.80
2018-12-01T21:43:18.074Z,4.20
2018-12-01T21:44:13.062Z,3.90
2018-12-01T21:45:13.777Z,3.80
2018-12-01T21:46:16.274Z,4.10
2018-12-01T21:47:14.290Z,3.80
2018-12-01T21:48:13.589Z,3.70
2018-12-01T21:49:14.777Z,4.00
2018-12-01T21:50:14.798Z,3.50
2018-12-01T21:51:15.818Z,3.40
2018-12-01T21:52:14.290Z,2.80
2018-12-01T21:53:16.238Z,3.10
2018-12-01T21:54:13.729Z,3.00
2018-12-01T21:55:14.849Z,3.00
2018-12-01T21:56:15.800Z,3.10
2018-12-01T21:57:14.130Z,3.10
2018-12-01T21:58:16.284Z,2.80
2018-12-01T21:59:16.280Z,3.20
2018-12-01T22:00:16.304Z,2.80
2018-12-01T22:01:16.282Z,3.10
2018-12-01T22:02:14.864Z,2.90
2018-12-01T22:03:15.085Z,3.10
2018-12-01T22:04:15.295Z,3.00